Terminal Aerodrome Forecast
Issued by NWS Milwaukee/Sullivan, WI

Home | Current Version | Previous Version | Text Only | Print | Product List | Glossary On
Versions: 1 2 3 4 5 6 7 8 9 10 11 12 13 14 15 16 17 18 19 20 21 22 23 24 25 26 27 28 29 30 31 32 33 34 35 36 37 38 39 40 41 42 43 44 45 46 47
000
FTUS43 KMKX 230240 AAA
TAFMSN
TAF AMD
KMSN 230240Z 2303/2324 VRB03KT P6SM OVC200
     FM231500 20007KT P6SM SCT200
     FM231700 24008KT P6SM BKN200
     FM232000 28009KT P6SM BKN110=

USA.gov is the U.S. government's official web portal to all federal, state and local government web resources and services.